sensor_id;sensor_type;location;lat;lon;timestamp;P1;durP1;ratioP1;P2;durP2;ratioP2
32094;SDS011;18608;53.688;10.748;2022-07-12T00:01:05;2.47;;;2.37;;
32094;SDS011;18608;53.688;10.748;2022-07-12T00:03:31;3.77;;;3.33;;
32094;SDS011;18608;53.688;10.748;2022-07-12T00:05:58;4.33;;;2.63;;
32094;SDS011;18608;53.688;10.748;2022-07-12T00:08:23;1.90;;;1.80;;
32094;SDS011;18608;53.688;10.748;2022-07-12T00:10:49;1.77;;;1.67;;
32094;SDS011;18608;53.688;10.748;2022-07-12T00:13:16;3.83;;;2.30;;
32094;SDS011;18608;53.688;10.748;2022-07-12T00:15:42;5.97;;;2.07;;
32094;SDS011;18608;53.688;10.748;2022-07-12T00:18:08;3.30;;;2.87;;
32094;SDS011;18608;53.688;10.748;2022-07-12T00:20:34;4.30;;;2.33;;
32094;SDS011;18608;53.688;10.748;2022-07-12T00:23:01;2.33;;;2.20;;
32094;SDS011;18608;53.688;10.748;2022-07-12T00:25:26;4.53;;;2.40;;
32094;SDS011;18608;53.688;10.748;2022-07-12T00:27:52;4.67;;;3.03;;
32094;SDS011;18608;53.688;10.748;2022-07-12T00:30:18;3.40;;;2.10;;
32094;SDS011;18608;53.688;10.748;2022-07-12T00:32:44;3.33;;;2.10;;
32094;SDS011;18608;53.688;10.748;2022-07-12T00:35:10;4.03;;;2.50;;
32094;SDS011;18608;53.688;10.748;2022-07-12T00:37:36;2.60;;;2.40;;
32094;SDS011;18608;53.688;10.748;2022-07-12T00:40:04;3.07;;;2.50;;
32094;SDS011;18608;53.688;10.748;2022-07-12T00:42:37;3.00;;;2.70;;
32094;SDS011;18608;53.688;10.748;2022-07-12T00:45:06;4.00;;;3.60;;
32094;SDS011;18608;53.688;10.748;2022-07-12T00:47:43;3.43;;;3.03;;
32094;SDS011;18608;53.688;10.748;2022-07-12T00:50:11;4.13;;;3.50;;
32094;SDS011;18608;53.688;10.748;2022-07-12T00:52:42;3.73;;;3.30;;
32094;SDS011;18608;53.688;10.748;2022-07-12T00:55:09;3.03;;;2.83;;
32094;SDS011;18608;53.688;10.748;2022-07-12T00:57:36;3.50;;;2.70;;
32094;SDS011;18608;53.688;10.748;2022-07-12T01:00:07;4.93;;;3.33;;
32094;SDS011;18608;53.688;10.748;2022-07-12T01:02:34;5.13;;;3.10;;
32094;SDS011;18608;53.688;10.748;2022-07-12T01:05:00;3.70;;;3.07;;
32094;SDS011;18608;53.688;10.748;2022-07-12T01:07:28;4.57;;;2.30;;
32094;SDS011;18608;53.688;10.748;2022-07-12T01:09:58;4.03;;;2.93;;
32094;SDS011;18608;53.688;10.748;2022-07-12T01:12:24;9.57;;;2.70;;
32094;SDS011;18608;53.688;10.748;2022-07-12T01:14:50;3.67;;;2.27;;
32094;SDS011;18608;53.688;10.748;2022-07-12T01:17:23;4.00;;;2.63;;
32094;SDS011;18608;53.688;10.748;2022-07-12T01:19:51;5.53;;;2.87;;
32094;SDS011;18608;53.688;10.748;2022-07-12T01:22:18;4.70;;;3.33;;
32094;SDS011;18608;53.688;10.748;2022-07-12T01:24:46;2.40;;;2.20;;
32094;SDS011;18608;53.688;10.748;2022-07-12T01:27:12;3.73;;;3.43;;
32094;SDS011;18608;53.688;10.748;2022-07-12T01:29:38;4.80;;;2.60;;
32094;SDS011;18608;53.688;10.748;2022-07-12T01:32:05;2.57;;;2.37;;
32094;SDS011;18608;53.688;10.748;2022-07-12T01:34:59;2.83;;;2.57;;
32094;SDS011;18608;53.688;10.748;2022-07-12T01:37:33;4.97;;;2.80;;
32094;SDS011;18608;53.688;10.748;2022-07-12T01:40:07;3.90;;;3.00;;
32094;SDS011;18608;53.688;10.748;2022-07-12T01:42:37;4.87;;;2.80;;
32094;SDS011;18608;53.688;10.748;2022-07-12T01:45:04;2.40;;;2.20;;
32094;SDS011;18608;53.688;10.748;2022-07-12T01:47:31;3.40;;;2.50;;
32094;SDS011;18608;53.688;10.748;2022-07-12T01:49:58;2.73;;;2.50;;
32094;SDS011;18608;53.688;10.748;2022-07-12T01:52:24;3.17;;;2.60;;
32094;SDS011;18608;53.688;10.748;2022-07-12T01:54:50;10.40;;;3.23;;
32094;SDS011;18608;53.688;10.748;2022-07-12T01:57:17;4.07;;;3.70;;
32094;SDS011;18608;53.688;10.748;2022-07-12T01:59:44;7.63;;;3.80;;
32094;SDS011;18608;53.688;10.748;2022-07-12T02:02:10;6.83;;;3.47;;
32094;SDS011;18608;53.688;10.748;2022-07-12T02:04:36;3.30;;;3.00;;
32094;SDS011;18608;53.688;10.748;2022-07-12T02:07:03;9.43;;;4.20;;
32094;SDS011;18608;53.688;10.748;2022-07-12T02:09:29;5.67;;;3.60;;
32094;SDS011;18608;53.688;10.748;2022-07-12T02:11:55;7.77;;;3.10;;
32094;SDS011;18608;53.688;10.748;2022-07-12T02:14:21;3.17;;;2.87;;
32094;SDS011;18608;53.688;10.748;2022-07-12T02:16:47;4.73;;;2.90;;
32094;SDS011;18608;53.688;10.748;2022-07-12T02:19:13;3.93;;;3.07;;
32094;SDS011;18608;53.688;10.748;2022-07-12T02:21:39;3.40;;;2.67;;
32094;SDS011;18608;53.688;10.748;2022-07-12T02:24:05;2.80;;;2.43;;
32094;SDS011;18608;53.688;10.748;2022-07-12T02:26:35;2.80;;;2.60;;
32094;SDS011;18608;53.688;10.748;2022-07-12T02:29:02;4.07;;;3.30;;
32094;SDS011;18608;53.688;10.748;2022-07-12T02:31:28;3.50;;;3.20;;
32094;SDS011;18608;53.688;10.748;2022-07-12T02:33:54;3.47;;;2.50;;
32094;SDS011;18608;53.688;10.748;2022-07-12T02:36:20;3.80;;;3.40;;
32094;SDS011;18608;53.688;10.748;2022-07-12T02:38:46;3.17;;;2.87;;
32094;SDS011;18608;53.688;10.748;2022-07-12T02:41:12;6.07;;;3.33;;
32094;SDS011;18608;53.688;10.748;2022-07-12T02:43:37;5.43;;;3.17;;
32094;SDS011;18608;53.688;10.748;2022-07-12T02:46:07;4.97;;;3.37;;
32094;SDS011;18608;53.688;10.748;2022-07-12T02:48:34;3.77;;;3.23;;
32094;SDS011;18608;53.688;10.748;2022-07-12T02:51:00;3.27;;;3.07;;
32094;SDS011;18608;53.688;10.748;2022-07-12T02:53:26;3.20;;;2.90;;
32094;SDS011;18608;53.688;10.748;2022-07-12T02:55:52;4.20;;;3.10;;
32094;SDS011;18608;53.688;10.748;2022-07-12T02:58:18;3.30;;;3.00;;
32094;SDS011;18608;53.688;10.748;2022-07-12T03:00:45;6.67;;;3.40;;
32094;SDS011;18608;53.688;10.748;2022-07-12T03:03:12;4.53;;;3.17;;
32094;SDS011;18608;53.688;10.748;2022-07-12T03:05:39;7.03;;;3.37;;
32094;SDS011;18608;53.688;10.748;2022-07-12T03:08:07;3.60;;;3.30;;
32094;SDS011;18608;53.688;10.748;2022-07-12T03:10:34;4.10;;;3.80;;
32094;SDS011;18608;53.688;10.748;2022-07-12T03:13:00;3.73;;;3.20;;
32094;SDS011;18608;53.688;10.748;2022-07-12T03:15:26;4.20;;;3.73;;
32094;SDS011;18608;53.688;10.748;2022-07-12T03:17:54;5.80;;;3.23;;
32094;SDS011;18608;53.688;10.748;2022-07-12T03:20:20;3.77;;;3.20;;
32094;SDS011;18608;53.688;10.748;2022-07-12T03:22:46;4.57;;;3.30;;
32094;SDS011;18608;53.688;10.748;2022-07-12T03:25:13;9.17;;;3.67;;
32094;SDS011;18608;53.688;10.748;2022-07-12T03:27:39;3.50;;;3.20;;
32094;SDS011;18608;53.688;10.748;2022-07-12T03:30:06;4.50;;;3.57;;
32094;SDS011;18608;53.688;10.748;2022-07-12T03:32:33;4.07;;;3.77;;
32094;SDS011;18608;53.688;10.748;2022-07-12T03:34:59;4.80;;;3.40;;
32094;SDS011;18608;53.688;10.748;2022-07-12T03:37:25;4.93;;;4.00;;
32094;SDS011;18608;53.688;10.748;2022-07-12T03:39:50;4.97;;;3.93;;
32094;SDS011;18608;53.688;10.748;2022-07-12T03:42:16;4.87;;;3.87;;
32094;SDS011;18608;53.688;10.748;2022-07-12T03:44:41;3.50;;;3.20;;
32094;SDS011;18608;53.688;10.748;2022-07-12T03:47:07;3.50;;;3.17;;
32094;SDS011;18608;53.688;10.748;2022-07-12T03:49:33;4.23;;;3.83;;
32094;SDS011;18608;53.688;10.748;2022-07-12T03:51:59;4.10;;;3.40;;
32094;SDS011;18608;53.688;10.748;2022-07-12T03:54:25;4.33;;;3.60;;
32094;SDS011;18608;53.688;10.748;2022-07-12T03:56:51;4.80;;;3.07;;
32094;SDS011;18608;53.688;10.748;2022-07-12T03:59:35;2.70;;;2.50;;
32094;SDS011;18608;53.688;10.748;2022-07-12T04:02:02;3.07;;;2.50;;
32094;SDS011;18608;53.688;10.748;2022-07-12T04:04:28;2.60;;;2.40;;
32094;SDS011;18608;53.688;10.748;2022-07-12T04:06:54;4.67;;;3.40;;
32094;SDS011;18608;53.688;10.748;2022-07-12T04:09:19;3.83;;;3.27;;
32094;SDS011;18608;53.688;10.748;2022-07-12T04:11:45;3.10;;;2.90;;
32094;SDS011;18608;53.688;10.748;2022-07-12T04:14:11;3.40;;;2.80;;
32094;SDS011;18608;53.688;10.748;2022-07-12T04:16:37;5.00;;;2.87;;
32094;SDS011;18608;53.688;10.748;2022-07-12T04:19:03;4.47;;;4.00;;
32094;SDS011;18608;53.688;10.748;2022-07-12T04:21:34;5.90;;;3.27;;
32094;SDS011;18608;53.688;10.748;2022-07-12T04:24:00;3.47;;;3.17;;
32094;SDS011;18608;53.688;10.748;2022-07-12T04:26:26;4.67;;;3.00;;
32094;SDS011;18608;53.688;10.748;2022-07-12T04:28:52;7.80;;;3.17;;
32094;SDS011;18608;53.688;10.748;2022-07-12T04:31:18;7.60;;;3.00;;
32094;SDS011;18608;53.688;10.748;2022-07-12T04:33:44;3.27;;;2.97;;
32094;SDS011;18608;53.688;10.748;2022-07-12T04:36:10;6.40;;;3.53;;
32094;SDS011;18608;53.688;10.748;2022-07-12T04:38:36;8.03;;;3.70;;
32094;SDS011;18608;53.688;10.748;2022-07-12T04:41:02;6.30;;;3.40;;
32094;SDS011;18608;53.688;10.748;2022-07-12T04:43:28;5.00;;;3.20;;
32094;SDS011;18608;53.688;10.748;2022-07-12T04:45:54;5.93;;;3.37;;
32094;SDS011;18608;53.688;10.748;2022-07-12T04:48:20;7.90;;;3.60;;
32094;SDS011;18608;53.688;10.748;2022-07-12T04:50:46;10.67;;;3.40;;
32094;SDS011;18608;53.688;10.748;2022-07-12T04:53:12;7.93;;;2.87;;
32094;SDS011;18608;53.688;10.748;2022-07-12T04:55:38;6.47;;;3.47;;
32094;SDS011;18608;53.688;10.748;2022-07-12T04:58:04;11.73;;;3.00;;
32094;SDS011;18608;53.688;10.748;2022-07-12T05:00:30;2.87;;;2.63;;
32094;SDS011;18608;53.688;10.748;2022-07-12T05:02:56;8.43;;;3.57;;
32094;SDS011;18608;53.688;10.748;2022-07-12T05:05:22;10.13;;;3.57;;
32094;SDS011;18608;53.688;10.748;2022-07-12T05:07:48;12.13;;;3.00;;
32094;SDS011;18608;53.688;10.748;2022-07-12T05:10:14;4.67;;;2.90;;
32094;SDS011;18608;53.688;10.748;2022-07-12T05:12:40;11.20;;;3.10;;
32094;SDS011;18608;53.688;10.748;2022-07-12T05:15:06;4.53;;;3.10;;
32094;SDS011;18608;53.688;10.748;2022-07-12T05:17:33;4.97;;;2.50;;
32094;SDS011;18608;53.688;10.748;2022-07-12T05:19:59;3.27;;;2.60;;
32094;SDS011;18608;53.688;10.748;2022-07-12T05:22:25;3.57;;;2.27;;
32094;SDS011;18608;53.688;10.748;2022-07-12T05:24:51;4.77;;;2.70;;
32094;SDS011;18608;53.688;10.748;2022-07-12T05:27:17;3.93;;;2.33;;
32094;SDS011;18608;53.688;10.748;2022-07-12T05:29:43;6.87;;;2.50;;
32094;SDS011;18608;53.688;10.748;2022-07-12T05:32:09;4.10;;;2.33;;
32094;SDS011;18608;53.688;10.748;2022-07-12T05:34:36;5.57;;;2.80;;
32094;SDS011;18608;53.688;10.748;2022-07-12T05:37:03;4.40;;;2.77;;
32094;SDS011;18608;53.688;10.748;2022-07-12T05:39:29;3.23;;;2.97;;
32094;SDS011;18608;53.688;10.748;2022-07-12T05:41:56;4.40;;;2.37;;
32094;SDS011;18608;53.688;10.748;2022-07-12T05:44:22;5.70;;;2.87;;
32094;SDS011;18608;53.688;10.748;2022-07-12T05:46:49;4.00;;;2.30;;
32094;SDS011;18608;53.688;10.748;2022-07-12T05:49:15;9.67;;;3.10;;
32094;SDS011;18608;53.688;10.748;2022-07-12T05:51:41;7.67;;;3.20;;
32094;SDS011;18608;53.688;10.748;2022-07-12T05:54:26;4.70;;;2.20;;
32094;SDS011;18608;53.688;10.748;2022-07-12T05:56:52;4.83;;;3.00;;
32094;SDS011;18608;53.688;10.748;2022-07-12T05:59:18;10.17;;;3.27;;
32094;SDS011;18608;53.688;10.748;2022-07-12T06:01:44;7.33;;;3.30;;
32094;SDS011;18608;53.688;10.748;2022-07-12T06:04:10;14.50;;;3.37;;
32094;SDS011;18608;53.688;10.748;2022-07-12T06:06:36;9.80;;;2.53;;
32094;SDS011;18608;53.688;10.748;2022-07-12T06:09:03;5.00;;;3.10;;
32094;SDS011;18608;53.688;10.748;2022-07-12T06:11:29;2.73;;;2.27;;
32094;SDS011;18608;53.688;10.748;2022-07-12T06:13:55;4.60;;;2.57;;
32094;SDS011;18608;53.688;10.748;2022-07-12T06:16:21;2.30;;;2.10;;
32094;SDS011;18608;53.688;10.748;2022-07-12T06:18:47;4.20;;;2.50;;
32094;SDS011;18608;53.688;10.748;2022-07-12T06:21:13;9.53;;;2.90;;
32094;SDS011;18608;53.688;10.748;2022-07-12T06:23:39;4.30;;;2.60;;
32094;SDS011;18608;53.688;10.748;2022-07-12T06:26:05;3.03;;;2.73;;
32094;SDS011;18608;53.688;10.748;2022-07-12T06:28:31;3.43;;;2.70;;
32094;SDS011;18608;53.688;10.748;2022-07-12T06:30:57;3.10;;;2.87;;
32094;SDS011;18608;53.688;10.748;2022-07-12T06:33:23;4.37;;;2.93;;
32094;SDS011;18608;53.688;10.748;2022-07-12T06:35:49;5.40;;;3.50;;
32094;SDS011;18608;53.688;10.748;2022-07-12T06:38:15;9.17;;;3.57;;
32094;SDS011;18608;53.688;10.748;2022-07-12T06:40:41;3.13;;;2.80;;
32094;SDS011;18608;53.688;10.748;2022-07-12T06:43:10;3.27;;;2.97;;
32094;SDS011;18608;53.688;10.748;2022-07-12T06:45:38;5.33;;;3.23;;
32094;SDS011;18608;53.688;10.748;2022-07-12T06:48:04;6.03;;;3.43;;
32094;SDS011;18608;53.688;10.748;2022-07-12T06:50:30;3.67;;;2.73;;
32094;SDS011;18608;53.688;10.748;2022-07-12T06:52:56;4.03;;;2.93;;
32094;SDS011;18608;53.688;10.748;2022-07-12T06:55:23;4.83;;;3.17;;
32094;SDS011;18608;53.688;10.748;2022-07-12T06:57:49;9.43;;;3.10;;
32094;SDS011;18608;53.688;10.748;2022-07-12T07:00:15;6.47;;;2.60;;
32094;SDS011;18608;53.688;10.748;2022-07-12T07:02:41;7.60;;;3.77;;
32094;SDS011;18608;53.688;10.748;2022-07-12T07:05:07;3.40;;;3.10;;
32094;SDS011;18608;53.688;10.748;2022-07-12T07:07:33;4.83;;;3.07;;
32094;SDS011;18608;53.688;10.748;2022-07-12T07:09:59;8.00;;;3.77;;
32094;SDS011;18608;53.688;10.748;2022-07-12T07:12:25;10.70;;;4.03;;
32094;SDS011;18608;53.688;10.748;2022-07-12T07:14:51;3.50;;;3.20;;
32094;SDS011;18608;53.688;10.748;2022-07-12T07:17:17;5.20;;;4.17;;
32094;SDS011;18608;53.688;10.748;2022-07-12T07:19:44;4.63;;;3.60;;
32094;SDS011;18608;53.688;10.748;2022-07-12T07:22:11;5.47;;;4.57;;
32094;SDS011;18608;53.688;10.748;2022-07-12T07:24:37;3.20;;;2.90;;
32094;SDS011;18608;53.688;10.748;2022-07-12T07:27:03;4.20;;;3.80;;
32094;SDS011;18608;53.688;10.748;2022-07-12T07:29:29;7.60;;;4.63;;
32094;SDS011;18608;53.688;10.748;2022-07-12T07:32:14;4.37;;;3.93;;
32094;SDS011;18608;53.688;10.748;2022-07-12T07:34:40;6.00;;;3.47;;
32094;SDS011;18608;53.688;10.748;2022-07-12T07:37:07;5.43;;;3.77;;
32094;SDS011;18608;53.688;10.748;2022-07-12T07:39:33;5.77;;;3.40;;
32094;SDS011;18608;53.688;10.748;2022-07-12T07:41:59;4.60;;;4.10;;
32094;SDS011;18608;53.688;10.748;2022-07-12T07:44:25;4.90;;;4.20;;
32094;SDS011;18608;53.688;10.748;2022-07-12T07:46:51;8.60;;;3.83;;
32094;SDS011;18608;53.688;10.748;2022-07-12T07:49:17;6.53;;;4.17;;
32094;SDS011;18608;53.688;10.748;2022-07-12T07:51:43;3.97;;;3.53;;
32094;SDS011;18608;53.688;10.748;2022-07-12T07:54:09;5.67;;;3.70;;
32094;SDS011;18608;53.688;10.748;2022-07-12T07:56:35;4.90;;;4.17;;
32094;SDS011;18608;53.688;10.748;2022-07-12T07:59:01;4.30;;;3.00;;
32094;SDS011;18608;53.688;10.748;2022-07-12T08:01:27;3.30;;;2.70;;
32094;SDS011;18608;53.688;10.748;2022-07-12T08:04:13;5.97;;;3.00;;
32094;SDS011;18608;53.688;10.748;2022-07-12T08:06:40;4.27;;;3.93;;
32094;SDS011;18608;53.688;10.748;2022-07-12T08:09:06;3.67;;;3.33;;
32094;SDS011;18608;53.688;10.748;2022-07-12T08:11:32;10.90;;;4.80;;
32094;SDS011;18608;53.688;10.748;2022-07-12T08:13:59;5.00;;;4.30;;
32094;SDS011;18608;53.688;10.748;2022-07-12T08:16:25;5.77;;;4.47;;
32094;SDS011;18608;53.688;10.748;2022-07-12T08:18:51;4.60;;;4.20;;
32094;SDS011;18608;53.688;10.748;2022-07-12T08:21:17;4.37;;;3.97;;
32094;SDS011;18608;53.688;10.748;2022-07-12T08:23:44;4.07;;;3.77;;
32094;SDS011;18608;53.688;10.748;2022-07-12T08:26:09;6.93;;;4.30;;
32094;SDS011;18608;53.688;10.748;2022-07-12T08:28:35;6.00;;;5.37;;
32094;SDS011;18608;53.688;10.748;2022-07-12T08:31:01;7.40;;;4.80;;
32094;SDS011;18608;53.688;10.748;2022-07-12T08:33:27;7.30;;;5.33;;
32094;SDS011;18608;53.688;10.748;2022-07-12T08:35:54;6.50;;;5.80;;
32094;SDS011;18608;53.688;10.748;2022-07-12T08:38:20;8.37;;;4.80;;
32094;SDS011;18608;53.688;10.748;2022-07-12T08:40:46;4.10;;;3.70;;
32094;SDS011;18608;53.688;10.748;2022-07-12T08:43:12;6.20;;;4.63;;
32094;SDS011;18608;53.688;10.748;2022-07-12T08:45:38;6.07;;;4.10;;
32094;SDS011;18608;53.688;10.748;2022-07-12T08:48:05;7.97;;;3.97;;
32094;SDS011;18608;53.688;10.748;2022-07-12T08:50:32;3.70;;;3.37;;
32094;SDS011;18608;53.688;10.748;2022-07-12T08:52:58;4.17;;;3.87;;
32094;SDS011;18608;53.688;10.748;2022-07-12T08:55:25;4.17;;;3.53;;
32094;SDS011;18608;53.688;10.748;2022-07-12T08:57:56;4.83;;;3.63;;
32094;SDS011;18608;53.688;10.748;2022-07-12T09:00:25;4.73;;;3.10;;
32094;SDS011;18608;53.688;10.748;2022-07-12T09:02:53;2.70;;;2.50;;
32094;SDS011;18608;53.688;10.748;2022-07-12T09:05:20;4.07;;;3.23;;
32094;SDS011;18608;53.688;10.748;2022-07-12T09:07:48;3.77;;;3.37;;
32094;SDS011;18608;53.688;10.748;2022-07-12T09:10:15;4.23;;;3.40;;
32094;SDS011;18608;53.688;10.748;2022-07-12T09:12:40;3.30;;;2.87;;
32094;SDS011;18608;53.688;10.748;2022-07-12T09:17:39;3.93;;;3.13;;
32094;SDS011;18608;53.688;10.748;2022-07-12T09:20:05;3.53;;;3.00;;
32094;SDS011;18608;53.688;10.748;2022-07-12T09:22:35;3.30;;;3.00;;
32094;SDS011;18608;53.688;10.748;2022-07-12T09:25:19;2.60;;;2.40;;
32094;SDS011;18608;53.688;10.748;2022-07-12T09:27:52;4.17;;;2.33;;
32094;SDS011;18608;53.688;10.748;2022-07-12T09:30:22;2.50;;;2.30;;
32094;SDS011;18608;53.688;10.748;2022-07-12T09:35:37;3.37;;;2.43;;
32094;SDS011;18608;53.688;10.748;2022-07-12T09:38:22;2.43;;;2.23;;
32094;SDS011;18608;53.688;10.748;2022-07-12T09:40:49;2.73;;;2.30;;
32094;SDS011;18608;53.688;10.748;2022-07-12T09:43:15;2.33;;;2.03;;
32094;SDS011;18608;53.688;10.748;2022-07-12T09:45:42;2.77;;;2.53;;
32094;SDS011;18608;53.688;10.748;2022-07-12T09:48:09;2.73;;;2.53;;
32094;SDS011;18608;53.688;10.748;2022-07-12T09:50:36;3.30;;;2.17;;
32094;SDS011;18608;53.688;10.748;2022-07-12T09:53:03;7.33;;;1.80;;
32094;SDS011;18608;53.688;10.748;2022-07-12T09:55:29;2.30;;;1.80;;
32094;SDS011;18608;53.688;10.748;2022-07-12T09:57:56;3.30;;;2.40;;
32094;SDS011;18608;53.688;10.748;2022-07-12T10:00:25;3.30;;;2.00;;
32094;SDS011;18608;53.688;10.748;2022-07-12T10:02:51;2.90;;;2.20;;
32094;SDS011;18608;53.688;10.748;2022-07-12T10:05:20;2.70;;;1.87;;
32094;SDS011;18608;53.688;10.748;2022-07-12T10:07:49;2.47;;;2.27;;
32094;SDS011;18608;53.688;10.748;2022-07-12T10:10:15;2.30;;;2.10;;
32094;SDS011;18608;53.688;10.748;2022-07-12T10:12:42;2.47;;;2.27;;
32094;SDS011;18608;53.688;10.748;2022-07-12T10:15:15;2.37;;;2.17;;
32094;SDS011;18608;53.688;10.748;2022-07-12T10:17:52;5.77;;;2.33;;
32094;SDS011;18608;53.688;10.748;2022-07-12T10:20:21;1.97;;;1.77;;
32094;SDS011;18608;53.688;10.748;2022-07-12T10:22:48;1.87;;;1.77;;
32094;SDS011;18608;53.688;10.748;2022-07-12T10:25:31;3.70;;;1.90;;
32094;SDS011;18608;53.688;10.748;2022-07-12T10:27:58;1.97;;;1.77;;
32094;SDS011;18608;53.688;10.748;2022-07-12T10:30:24;2.60;;;2.20;;
32094;SDS011;18608;53.688;10.748;2022-07-12T10:32:52;1.93;;;1.83;;
32094;SDS011;18608;53.688;10.748;2022-07-12T10:35:23;1.90;;;1.80;;
32094;SDS011;18608;53.688;10.748;2022-07-12T10:40:40;2.60;;;2.40;;
32094;SDS011;18608;53.688;10.748;2022-07-12T10:48:04;2.03;;;1.93;;
32094;SDS011;18608;53.688;10.748;2022-07-12T10:53:21;2.33;;;2.17;;
32094;SDS011;18608;53.688;10.748;2022-07-12T10:58:30;3.63;;;1.50;;
32094;SDS011;18608;53.688;10.748;2022-07-12T11:01:16;2.83;;;1.90;;
32094;SDS011;18608;53.688;10.748;2022-07-12T11:03:45;3.63;;;1.80;;
32094;SDS011;18608;53.688;10.748;2022-07-12T11:06:14;2.27;;;2.10;;
32094;SDS011;18608;53.688;10.748;2022-07-12T11:08:50;1.73;;;1.63;;
32094;SDS011;18608;53.688;10.748;2022-07-12T11:11:16;8.80;;;2.00;;
32094;SDS011;18608;53.688;10.748;2022-07-12T11:13:42;1.50;;;1.40;;
32094;SDS011;18608;53.688;10.748;2022-07-12T11:16:08;2.93;;;2.73;;
32094;SDS011;18608;53.688;10.748;2022-07-12T11:18:35;2.60;;;2.10;;
32094;SDS011;18608;53.688;10.748;2022-07-12T11:21:01;2.07;;;1.97;;
32094;SDS011;18608;53.688;10.748;2022-07-12T11:23:28;2.23;;;2.00;;
32094;SDS011;18608;53.688;10.748;2022-07-12T11:25:55;1.60;;;1.23;;
32094;SDS011;18608;53.688;10.748;2022-07-12T11:28:25;1.10;;;1.10;;
32094;SDS011;18608;53.688;10.748;2022-07-12T11:31:11;2.17;;;1.97;;
32094;SDS011;18608;53.688;10.748;2022-07-12T11:33:39;1.93;;;1.47;;
32094;SDS011;18608;53.688;10.748;2022-07-12T11:36:07;1.90;;;1.57;;
32094;SDS011;18608;53.688;10.748;2022-07-12T11:38:35;1.43;;;1.33;;
32094;SDS011;18608;53.688;10.748;2022-07-12T11:41:02;1.40;;;1.30;;
32094;SDS011;18608;53.688;10.748;2022-07-12T11:43:30;1.63;;;1.53;;
32094;SDS011;18608;53.688;10.748;2022-07-12T11:45:57;1.63;;;1.20;;
32094;SDS011;18608;53.688;10.748;2022-07-12T11:48:23;3.10;;;1.33;;
32094;SDS011;18608;53.688;10.748;2022-07-12T11:50:53;1.30;;;1.30;;
32094;SDS011;18608;53.688;10.748;2022-07-12T11:53:21;1.63;;;1.53;;
32094;SDS011;18608;53.688;10.748;2022-07-12T11:55:54;1.50;;;1.40;;
32094;SDS011;18608;53.688;10.748;2022-07-12T11:58:23;1.70;;;1.60;;
32094;SDS011;18608;53.688;10.748;2022-07-12T12:00:51;1.30;;;1.20;;
32094;SDS011;18608;53.688;10.748;2022-07-12T12:03:18;3.00;;;1.40;;
32094;SDS011;18608;53.688;10.748;2022-07-12T12:05:51;1.60;;;1.50;;
32094;SDS011;18608;53.688;10.748;2022-07-12T12:08:19;2.23;;;1.53;;
32094;SDS011;18608;53.688;10.748;2022-07-12T12:13:21;2.63;;;1.77;;
32094;SDS011;18608;53.688;10.748;2022-07-12T12:16:00;1.47;;;1.37;;
32094;SDS011;18608;53.688;10.748;2022-07-12T12:21:04;2.03;;;1.93;;
32094;SDS011;18608;53.688;10.748;2022-07-12T12:23:31;3.53;;;2.20;;
32094;SDS011;18608;53.688;10.748;2022-07-12T12:26:13;5.70;;;2.10;;
32094;SDS011;18608;53.688;10.748;2022-07-12T12:28:46;2.40;;;1.20;;
32094;SDS011;18608;53.688;10.748;2022-07-12T12:31:14;1.90;;;1.77;;
32094;SDS011;18608;53.688;10.748;2022-07-12T12:33:42;3.07;;;1.90;;
32094;SDS011;18608;53.688;10.748;2022-07-12T12:36:13;4.27;;;1.93;;
32094;SDS011;18608;53.688;10.748;2022-07-12T12:38:39;1.97;;;1.60;;
32094;SDS011;18608;53.688;10.748;2022-07-12T12:41:07;2.03;;;1.67;;
32094;SDS011;18608;53.688;10.748;2022-07-12T12:43:33;1.73;;;1.63;;
32094;SDS011;18608;53.688;10.748;2022-07-12T12:45:59;1.47;;;1.37;;
32094;SDS011;18608;53.688;10.748;2022-07-12T12:48:26;1.60;;;1.50;;
32094;SDS011;18608;53.688;10.748;2022-07-12T12:50:53;2.70;;;1.80;;
32094;SDS011;18608;53.688;10.748;2022-07-12T12:53:26;2.87;;;2.10;;
32094;SDS011;18608;53.688;10.748;2022-07-12T12:55:53;1.60;;;1.50;;
32094;SDS011;18608;53.688;10.748;2022-07-12T12:58:21;2.20;;;2.10;;
32094;SDS011;18608;53.688;10.748;2022-07-12T13:00:49;1.93;;;1.83;;
32094;SDS011;18608;53.688;10.748;2022-07-12T13:03:16;1.60;;;1.47;;
32094;SDS011;18608;53.688;10.748;2022-07-12T13:05:43;2.83;;;1.67;;
32094;SDS011;18608;53.688;10.748;2022-07-12T13:08:10;2.73;;;1.50;;
32094;SDS011;18608;53.688;10.748;2022-07-12T13:10:37;2.90;;;1.70;;
32094;SDS011;18608;53.688;10.748;2022-07-12T13:13:05;2.00;;;1.47;;
32094;SDS011;18608;53.688;10.748;2022-07-12T13:15:31;2.00;;;1.13;;
32094;SDS011;18608;53.688;10.748;2022-07-12T13:17:57;2.73;;;1.60;;
32094;SDS011;18608;53.688;10.748;2022-07-12T13:20:24;2.80;;;1.87;;
32094;SDS011;18608;53.688;10.748;2022-07-12T13:22:50;2.50;;;1.37;;
32094;SDS011;18608;53.688;10.748;2022-07-12T13:25:17;1.37;;;1.23;;
32094;SDS011;18608;53.688;10.748;2022-07-12T13:27:43;1.70;;;1.60;;
32094;SDS011;18608;53.688;10.748;2022-07-12T13:30:09;1.47;;;1.37;;
32094;SDS011;18608;53.688;10.748;2022-07-12T13:32:37;2.13;;;1.30;;
32094;SDS011;18608;53.688;10.748;2022-07-12T13:35:04;3.00;;;1.67;;
32094;SDS011;18608;53.688;10.748;2022-07-12T13:37:31;1.00;;;0.90;;
32094;SDS011;18608;53.688;10.748;2022-07-12T13:39:57;1.20;;;1.10;;
32094;SDS011;18608;53.688;10.748;2022-07-12T13:42:35;2.80;;;1.50;;
32094;SDS011;18608;53.688;10.748;2022-07-12T13:45:05;2.67;;;1.57;;
32094;SDS011;18608;53.688;10.748;2022-07-12T13:47:32;3.27;;;1.90;;
32094;SDS011;18608;53.688;10.748;2022-07-12T13:49:58;2.93;;;1.60;;
32094;SDS011;18608;53.688;10.748;2022-07-12T13:52:24;2.40;;;1.33;;
32094;SDS011;18608;53.688;10.748;2022-07-12T13:54:50;2.70;;;1.30;;
32094;SDS011;18608;53.688;10.748;2022-07-12T13:57:16;6.30;;;1.40;;
32094;SDS011;18608;53.688;10.748;2022-07-12T13:59:42;3.60;;;1.50;;
32094;SDS011;18608;53.688;10.748;2022-07-12T14:02:08;1.40;;;1.30;;
32094;SDS011;18608;53.688;10.748;2022-07-12T14:04:34;2.57;;;1.23;;
32094;SDS011;18608;53.688;10.748;2022-07-12T14:07:00;3.30;;;1.20;;
32094;SDS011;18608;53.688;10.748;2022-07-12T14:09:27;1.63;;;1.53;;
32094;SDS011;18608;53.688;10.748;2022-07-12T14:11:53;3.53;;;1.30;;
32094;SDS011;18608;53.688;10.748;2022-07-12T14:14:19;2.90;;;1.37;;
32094;SDS011;18608;53.688;10.748;2022-07-12T14:17:03;1.93;;;1.00;;
32094;SDS011;18608;53.688;10.748;2022-07-12T14:19:29;3.00;;;1.33;;
32094;SDS011;18608;53.688;10.748;2022-07-12T14:21:55;0.90;;;0.80;;
32094;SDS011;18608;53.688;10.748;2022-07-12T14:24:21;1.00;;;1.00;;
32094;SDS011;18608;53.688;10.748;2022-07-12T14:26:47;5.97;;;2.60;;
32094;SDS011;18608;53.688;10.748;2022-07-12T14:29:13;3.70;;;1.80;;
32094;SDS011;18608;53.688;10.748;2022-07-12T14:31:39;5.63;;;1.13;;
32094;SDS011;18608;53.688;10.748;2022-07-12T14:34:05;1.20;;;1.10;;
32094;SDS011;18608;53.688;10.748;2022-07-12T14:36:31;1.37;;;1.20;;
32094;SDS011;18608;53.688;10.748;2022-07-12T14:38:58;1.80;;;1.67;;
32094;SDS011;18608;53.688;10.748;2022-07-12T14:41:24;1.73;;;1.10;;
32094;SDS011;18608;53.688;10.748;2022-07-12T14:43:50;1.20;;;1.10;;
32094;SDS011;18608;53.688;10.748;2022-07-12T14:46:16;1.50;;;1.40;;
32094;SDS011;18608;53.688;10.748;2022-07-12T14:48:43;1.47;;;1.37;;
32094;SDS011;18608;53.688;10.748;2022-07-12T14:51:09;5.80;;;1.40;;
32094;SDS011;18608;53.688;10.748;2022-07-12T14:53:35;3.03;;;1.10;;
32094;SDS011;18608;53.688;10.748;2022-07-12T14:56:01;1.13;;;1.00;;
32094;SDS011;18608;53.688;10.748;2022-07-12T14:58:27;2.70;;;1.30;;